Lowake, Texas
Current Conditions -  °F | °C
As of 9:51 PM on Sunday 25 Jan 2015 (Local Time) from KSJT Reporting Station
Clear Clear  
Wind Chill: 46°   Ceiling: Unl
Heat Index: 46°   Visibility: 10mi
Dew Point: 34°   Wind: 0mph
Humidity: 63%   Direction: NA
Pressure: 30.25"   Gusts: NA
Location:  31.57°N, 100.08°W
Report Text: KSJT 260351Z AUTO 00000KT 10SM CLR 08/01 A3025 RMK AO2 SLP247 T00780011
Loading
Personal Weather Stations






























Interactive Weather Map New forecast layout! Learn more

10-Day Weather Forecast

Advertisements
Track Severe Weather on mobile